Time,TemperatureF,DewpointF,PressureIn,WindDirection,WindDirectionDegrees,WindSpeedMPH,WindSpeedGustMPH,Humidity,HourlyPrecipIn,Conditions,Clouds,dailyrainin,SoftwareType,DateUTC
2013-04-08 00:00:00,52.6,42.7,30.11,SSW,194,0.0,0.0,69,0.00,,,0.00,Wunderground v.1.15,2013-04-08 04:00:00,
2013-04-08 00:10:00,52.4,42.9,30.11,SSW,194,0.0,0.0,70,0.00,,,0.00,Wunderground v.1.15,2013-04-08 04:10:00,
2013-04-08 00:15:00,52.4,43.3,30.10,SSW,194,0.0,0.0,71,0.00,,,0.00,Wunderground v.1.15,2013-04-08 04:15:00,
2013-04-08 00:20:00,52.4,42.9,30.10,SSW,194,0.0,0.0,70,0.00,,,0.00,Wunderground v.1.15,2013-04-08 04:20:00,
2013-04-08 00:25:00,52.3,43.2,30.10,SSW,194,0.0,0.0,71,0.00,,,0.00,Wunderground v.1.15,2013-04-08 04:25:00,
2013-04-08 00:30:00,52.1,43.0,30.11,SSW,194,0.0,0.0,71,0.00,,,0.00,Wunderground v.1.15,2013-04-08 04:30:00,
2013-04-08 00:35:00,52.0,42.9,30.11,SSW,194,0.0,2.0,71,0.00,,,0.00,Wunderground v.1.15,2013-04-08 04:35:00,
2013-04-08 00:40:00,52.6,43.1,30.10,SSW,194,0.0,0.0,70,0.00,,,0.00,Wunderground v.1.15,2013-04-08 04:40:00,
2013-04-08 00:45:00,53.3,43.4,30.11,SSW,194,0.0,0.0,69,0.00,,,0.00,Wunderground v.1.15,2013-04-08 04:45:00,
2013-04-08 00:50:00,53.8,43.9,30.11,SSW,194,0.0,1.0,69,0.00,,,0.00,Wunderground v.1.15,2013-04-08 04:50:00,
2013-04-08 00:55:00,54.2,43.9,30.11,SSW,194,1.0,1.0,68,0.00,,,0.00,Wunderground v.1.15,2013-04-08 04:55:00,
2013-04-08 01:00:00,54.5,44.2,30.11,SSW,194,1.0,1.0,68,0.00,,,0.00,Wunderground v.1.15,2013-04-08 05:00:00,
2013-04-08 01:10:00,54.8,44.4,30.11,SSW,194,0.0,1.0,68,0.00,,,0.00,Wunderground v.1.15,2013-04-08 05:10:00,
2013-04-08 01:15:00,55.0,44.6,30.11,SSW,194,0.0,1.0,68,0.00,,,0.00,Wunderground v.1.15,2013-04-08 05:15:00,
2013-04-08 01:20:00,55.0,45.0,30.11,SSW,194,0.0,0.0,69,0.00,,,0.00,Wunderground v.1.15,2013-04-08 05:20:00,
2013-04-08 01:25:00,55.0,45.0,30.11,SSW,194,0.0,0.0,69,0.00,,,0.00,Wunderground v.1.15,2013-04-08 05:25:00,
2013-04-08 01:30:00,55.0,45.4,30.11,SSW,194,0.0,0.0,70,0.00,,,0.00,Wunderground v.1.15,2013-04-08 05:30:00,
2013-04-08 01:35:00,55.0,45.4,30.11,SSW,194,0.0,0.0,70,0.00,,,0.00,Wunderground v.1.15,2013-04-08 05:35:00,
2013-04-08 01:40:00,55.1,45.9,30.11,SSW,194,0.0,0.0,71,0.00,,,0.00,Wunderground v.1.15,2013-04-08 05:40:00,
2013-04-08 01:45:00,55.0,45.8,30.11,SSW,194,0.0,0.0,71,0.00,,,0.00,Wunderground v.1.15,2013-04-08 05:45:00,
2013-04-08 01:50:00,54.8,45.6,30.11,SSW,194,0.0,0.0,71,0.00,,,0.00,Wunderground v.1.15,2013-04-08 05:50:00,
2013-04-08 01:55:00,54.7,45.8,30.11,SSW,194,0.0,0.0,72,0.00,,,0.00,Wunderground v.1.15,2013-04-08 05:55:00,
2013-04-08 02:00:00,54.5,46.0,30.11,SSW,194,0.0,0.0,73,0.00,,,0.00,Wunderground v.1.15,2013-04-08 06:00:00,
2013-04-08 02:05:00,54.4,46.3,30.11,SSW,194,0.0,0.0,74,0.00,,,0.00,Wunderground v.1.15,2013-04-08 06:05:00,
2013-04-08 02:10:00,54.4,46.6,30.11,SSW,194,0.0,0.0,75,0.00,,,0.00,Wunderground v.1.15,2013-04-08 06:10:00,
2013-04-08 02:20:00,54.5,47.1,30.11,SSW,194,0.0,0.0,76,0.00,,,0.00,Wunderground v.1.15,2013-04-08 06:20:00,
2013-04-08 02:25:00,54.5,47.4,30.11,SSW,194,1.0,1.0,77,0.00,,,0.00,Wunderground v.1.15,2013-04-08 06:25:00,
2013-04-08 02:30:00,54.5,47.8,30.11,SSW,194,1.0,3.0,78,0.00,,,0.00,Wunderground v.1.15,2013-04-08 06:30:00,
2013-04-08 02:35:00,54.7,48.0,30.10,SSW,194,1.0,3.0,78,0.00,,,0.00,Wunderground v.1.15,2013-04-08 06:35:00,
2013-04-08 02:40:00,54.7,48.3,30.10,SSW,194,1.0,1.0,79,0.00,,,0.00,Wunderground v.1.15,2013-04-08 06:40:00,
2013-04-08 02:45:00,54.7,48.3,30.10,SSW,194,1.0,2.0,79,0.00,,,0.00,Wunderground v.1.15,2013-04-08 06:45:00,
2013-04-08 02:50:00,55.0,48.6,30.10,SSW,194,2.0,2.0,79,0.00,,,0.00,Wunderground v.1.15,2013-04-08 06:50:00,
2013-04-08 02:55:00,55.1,48.7,30.10,SSW,194,2.0,2.0,79,0.00,,,0.00,Wunderground v.1.15,2013-04-08 06:55:00,
2013-04-08 03:00:00,55.2,48.8,30.10,SSW,194,2.0,2.0,79,0.00,,,0.00,Wunderground v.1.15,2013-04-08 07:00:00,
2013-04-08 03:10:00,55.4,49.0,30.10,SSW,200,2.0,3.0,79,0.00,,,0.00,Wunderground v.1.15,2013-04-08 07:10:00,
2013-04-08 03:15:00,55.5,49.1,30.10,SSW,204,2.0,6.0,79,0.00,,,0.00,Wunderground v.1.15,2013-04-08 07:15:00,
2013-04-08 03:20:00,55.7,49.3,30.10,South,184,2.0,2.0,79,0.00,,,0.00,Wunderground v.1.15,2013-04-08 07:20:00,
2013-04-08 03:25:00,55.7,49.3,30.10,South,184,2.0,2.0,79,0.00,,,0.00,Wunderground v.1.15,2013-04-08 07:25:00,
2013-04-08 03:30:00,55.7,49.3,30.10,South,184,2.0,2.0,79,0.00,,,0.00,Wunderground v.1.15,2013-04-08 07:30:00,
2013-04-08 03:35:00,55.7,49.3,30.10,South,184,2.0,2.0,79,0.00,,,0.00,Wunderground v.1.15,2013-04-08 07:35:00,
2013-04-08 03:40:00,55.5,49.1,30.10,South,184,1.0,2.0,79,0.00,,,0.00,Wunderground v.1.15,2013-04-08 07:40:00,
2013-04-08 03:45:00,55.5,49.1,30.10,South,184,1.0,2.0,79,0.00,,,0.00,Wunderground v.1.15,2013-04-08 07:45:00,
2013-04-08 03:50:00,55.5,49.4,30.10,South,184,1.0,1.0,80,0.00,,,0.00,Wunderground v.1.15,2013-04-08 07:50:00,
2013-04-08 03:55:00,55.4,49.3,30.10,South,184,1.0,2.0,80,0.00,,,0.00,Wunderground v.1.15,2013-04-08 07:55:00,
2013-04-08 04:00:00,55.2,49.1,30.10,South,184,1.0,1.0,80,0.00,,,0.00,Wunderground v.1.15,2013-04-08 08:00:00,
2013-04-08 04:05:00,55.2,49.5,30.10,South,184,1.0,1.0,81,0.00,,,0.00,Wunderground v.1.15,2013-04-08 08:05:00,
2013-04-08 04:10:00,55.2,49.5,30.10,South,184,1.0,1.0,81,0.00,,,0.00,Wunderground v.1.15,2013-04-08 08:10:00,
2013-04-08 04:15:00,55.2,49.1,30.10,South,186,1.0,1.0,80,0.00,,,0.00,Wunderground v.1.15,2013-04-08 08:15:00,
2013-04-08 04:20:00,55.2,49.5,30.10,SSW,205,2.0,2.0,81,0.00,,,0.00,Wunderground v.1.15,2013-04-08 08:20:00,
2013-04-08 04:25:00,55.2,49.5,30.10,SSW,204,2.0,2.0,81,0.00,,,0.00,Wunderground v.1.15,2013-04-08 08:25:00,
2013-04-08 04:30:00,55.2,49.5,30.10,SSW,204,1.0,3.0,81,0.00,,,0.00,Wunderground v.1.15,2013-04-08 08:30:00,
2013-04-08 04:35:00,55.2,49.5,30.10,SSW,204,1.0,3.0,81,0.00,,,0.00,Wunderground v.1.15,2013-04-08 08:35:00,
2013-04-08 04:40:00,55.1,49.4,30.10,SSW,204,1.0,1.0,81,0.00,,,0.00,Wunderground v.1.15,2013-04-08 08:40:00,
2013-04-08 04:45:00,55.1,49.4,30.10,SSW,204,1.0,1.0,81,0.00,,,0.00,Wunderground v.1.15,2013-04-08 08:45:00,
2013-04-08 04:50:00,55.1,49.7,30.10,SSW,204,1.0,1.0,82,0.00,,,0.00,Wunderground v.1.15,2013-04-08 08:50:00,
2013-04-08 04:55:00,55.1,49.7,30.10,SSW,204,1.0,1.0,82,0.00,,,0.00,Wunderground v.1.15,2013-04-08 08:55:00,
2013-04-08 05:00:00,55.0,49.6,30.10,SSW,204,1.0,1.0,82,0.00,,,0.00,Wunderground v.1.15,2013-04-08 09:00:00,
2013-04-08 05:05:00,54.8,49.4,30.10,SSW,204,1.0,1.0,82,0.00,,,0.00,Wunderground v.1.15,2013-04-08 09:05:00,
2013-04-08 05:15:00,54.7,49.6,30.10,SSW,204,1.0,1.0,83,0.00,,,0.00,Wunderground v.1.15,2013-04-08 09:15:00,
2013-04-08 05:20:00,54.5,49.4,30.10,SSW,204,0.0,0.0,83,0.00,,,0.00,Wunderground v.1.15,2013-04-08 09:20:00,
2013-04-08 05:25:00,54.5,49.4,30.10,SSW,204,0.0,0.0,83,0.00,,,0.00,Wunderground v.1.15,2013-04-08 09:25:00,
2013-04-08 05:30:00,54.5,49.4,30.10,SSW,204,0.0,1.0,83,0.00,,,0.00,Wunderground v.1.15,2013-04-08 09:30:00,
2013-04-08 05:35:00,54.4,49.3,30.10,SSW,204,0.0,1.0,83,0.00,,,0.00,Wunderground v.1.15,2013-04-08 09:35:00,
2013-04-08 05:40:00,54.4,49.7,30.11,SSW,204,0.0,0.0,84,0.00,,,0.00,Wunderground v.1.15,2013-04-08 09:40:00,
2013-04-08 05:45:00,54.2,49.5,30.11,SSW,204,0.0,0.0,84,0.00,,,0.00,Wunderground v.1.15,2013-04-08 09:45:00,
2013-04-08 05:50:00,54.2,49.5,30.11,SSW,204,0.0,0.0,84,0.00,,,0.00,Wunderground v.1.15,2013-04-08 09:50:00,
2013-04-08 05:55:00,54.2,49.5,30.11,SSW,204,0.0,0.0,84,0.00,,,0.00,Wunderground v.1.15,2013-04-08 09:55:00,
2013-04-08 06:00:00,54.1,49.4,30.11,SSW,204,0.0,0.0,84,0.00,,,0.00,Wunderground v.1.15,2013-04-08 10:00:00,
2013-04-08 06:05:00,54.1,49.4,30.11,SSW,204,0.0,0.0,84,0.00,,,0.00,Wunderground v.1.15,2013-04-08 10:05:00,
2013-04-08 06:10:00,53.9,49.2,30.11,SSW,204,0.0,0.0,84,0.00,,,0.00,Wunderground v.1.15,2013-04-08 10:10:00,
2013-04-08 06:15:00,53.9,49.5,30.11,SSW,204,0.0,0.0,85,0.00,,,0.00,Wunderground v.1.15,2013-04-08 10:15:00,
2013-04-08 06:20:00,53.9,49.5,30.11,SSW,204,0.0,0.0,85,0.00,,,0.00,Wunderground v.1.15,2013-04-08 10:20:00,
2013-04-08 06:30:00,53.8,49.4,30.12,SSW,204,0.0,0.0,85,0.00,,,0.00,Wunderground v.1.15,2013-04-08 10:30:00,
2013-04-08 06:40:00,53.5,49.1,30.12,SSW,204,0.0,0.0,85,0.00,,,0.00,Wunderground v.1.15,2013-04-08 10:40:00,
2013-04-08 06:45:00,53.2,48.8,30.12,SSW,204,0.0,0.0,85,0.00,,,0.00,Wunderground v.1.15,2013-04-08 10:45:00,
2013-04-08 06:50:00,53.0,48.6,30.13,SSW,204,0.0,0.0,85,0.00,,,0.00,Wunderground v.1.15,2013-04-08 10:50:00,
2013-04-08 06:55:00,52.9,48.8,30.13,SSE,152,0.0,0.0,86,0.00,,,0.00,Wunderground v.1.15,2013-04-08 10:55:00,
2013-04-08 07:00:00,52.7,48.6,30.13,NNE,30,0.0,0.0,86,0.00,,,0.00,Wunderground v.1.15,2013-04-08 11:00:00,
2013-04-08 07:05:00,52.6,48.5,30.13,NNE,30,0.0,0.0,86,0.00,,,0.00,Wunderground v.1.15,2013-04-08 11:05:00,
2013-04-08 07:10:00,52.4,48.6,30.14,NNE,30,0.0,0.0,87,0.00,,,0.00,Wunderground v.1.15,2013-04-08 11:10:00,
2013-04-08 07:15:00,52.3,48.2,30.13,NNE,30,0.0,0.0,86,0.00,,,0.00,Wunderground v.1.15,2013-04-08 11:15:00,
2013-04-08 07:20:00,52.1,48.0,30.14,NNE,30,0.0,0.0,86,0.00,,,0.00,Wunderground v.1.15,2013-04-08 11:20:00,
2013-04-08 07:25:00,52.0,47.9,30.14,NNE,30,0.0,0.0,86,0.00,,,0.00,Wunderground v.1.15,2013-04-08 11:25:00,
2013-04-08 07:30:00,52.0,48.3,30.14,NNE,30,0.0,0.0,87,0.00,,,0.00,Wunderground v.1.15,2013-04-08 11:30:00,
2013-04-08 07:35:00,51.8,48.4,30.14,NNE,30,0.0,0.0,88,0.00,,,0.00,Wunderground v.1.15,2013-04-08 11:35:00,
2013-04-08 07:45:00,51.8,48.7,30.15,NNE,30,0.0,0.0,89,0.00,,,0.00,Wunderground v.1.15,2013-04-08 11:45:00,
2013-04-08 07:50:00,51.8,49.0,30.15,NNE,30,0.0,0.0,90,0.00,,,0.00,Wunderground v.1.15,2013-04-08 11:50:00,
2013-04-08 07:55:00,51.8,49.0,30.15,NNE,30,0.0,0.0,90,0.00,,,0.00,Wunderground v.1.15,2013-04-08 11:55:00,
2013-04-08 08:00:00,51.8,49.0,30.15,NNE,30,0.0,0.0,90,0.00,,,0.00,Wunderground v.1.15,2013-04-08 12:00:00,
2013-04-08 08:05:00,52.0,49.2,30.15,NNE,30,0.0,0.0,90,0.00,,,0.00,Wunderground v.1.15,2013-04-08 12:05:00,
2013-04-08 08:10:00,52.4,49.6,30.15,NNE,30,0.0,0.0,90,0.00,,,0.00,Wunderground v.1.15,2013-04-08 12:10:00,
2013-04-08 08:20:00,53.6,50.7,30.15,NNE,30,0.0,0.0,90,0.00,,,0.00,Wunderground v.1.15,2013-04-08 12:20:00,
2013-04-08 08:25:00,54.4,50.9,30.15,SSE,158,0.0,1.0,88,0.00,,,0.00,Wunderground v.1.15,2013-04-08 12:25:00,
2013-04-08 08:30:00,55.0,50.9,30.15,SSE,160,1.0,2.0,86,0.00,,,0.00,Wunderground v.1.15,2013-04-08 12:30:00,
2013-04-08 08:35:00,55.5,51.1,30.15,South,171,1.0,2.0,85,0.00,,,0.00,Wunderground v.1.15,2013-04-08 12:35:00,
2013-04-08 08:40:00,56.1,51.3,30.15,South,171,1.0,1.0,84,0.00,,,0.00,Wunderground v.1.15,2013-04-08 12:40:00,
2013-04-08 08:45:00,56.6,51.5,30.15,SSW,201,2.0,3.0,83,0.00,,,0.00,Wunderground v.1.15,2013-04-08 12:45:00,
2013-04-08 08:50:00,57.1,51.7,30.15,SW,214,2.0,2.0,82,0.00,,,0.00,Wunderground v.1.15,2013-04-08 12:50:00,
2013-04-08 09:00:00,58.1,51.6,30.15,South,181,2.0,4.0,79,0.00,,,0.00,Wunderground v.1.15,2013-04-08 13:00:00,
2013-04-08 09:05:00,58.6,51.8,30.15,SSW,197,3.0,4.0,78,0.00,,,0.00,Wunderground v.1.15,2013-04-08 13:05:00,
2013-04-08 09:10:00,58.9,52.1,30.15,SW,217,4.0,4.0,78,0.00,,,0.00,Wunderground v.1.15,2013-04-08 13:10:00,
2013-04-08 09:15:00,59.0,51.8,30.15,SW,228,4.0,7.0,77,0.00,,,0.00,Wunderground v.1.15,2013-04-08 13:15:00,
2013-04-08 09:20:00,59.2,52.0,30.14,SW,221,4.0,4.0,77,0.00,,,0.00,Wunderground v.1.15,2013-04-08 13:20:00,
2013-04-08 09:25:00,59.4,51.8,30.14,SSW,200,4.0,4.0,76,0.00,,,0.00,Wunderground v.1.15,2013-04-08 13:25:00,
2013-04-08 09:30:00,59.7,52.5,30.14,SSE,165,4.0,4.0,77,0.00,,,0.00,Wunderground v.1.15,2013-04-08 13:30:00,
2013-04-08 09:35:00,60.3,52.3,30.14,SW,227,3.0,4.0,75,0.00,,,0.00,Wunderground v.1.15,2013-04-08 13:35:00,
2013-04-08 09:40:00,60.8,52.1,30.15,WSW,243,3.0,3.0,73,0.00,,,0.00,Wunderground v.1.15,2013-04-08 13:40:00,
2013-04-08 09:45:00,60.9,51.8,30.14,SW,217,4.0,5.0,72,0.00,,,0.00,Wunderground v.1.15,2013-04-08 13:45:00,
2013-04-08 09:50:00,60.9,52.2,30.15,SW,236,4.0,4.0,73,0.00,,,0.00,Wunderground v.1.15,2013-04-08 13:50:00,
2013-04-08 09:55:00,61.2,51.7,30.15,WSW,239,3.0,4.0,71,0.00,,,0.00,Wunderground v.1.15,2013-04-08 13:55:00,
2013-04-08 10:00:00,61.4,51.9,30.15,WSW,248,4.0,4.0,71,0.00,,,0.00,Wunderground v.1.15,2013-04-08 14:00:00,
2013-04-08 10:05:00,61.7,52.2,30.15,SSW,205,3.0,4.0,71,0.00,,,0.00,Wunderground v.1.15,2013-04-08 14:05:00,
2013-04-08 10:10:00,62.2,52.3,30.15,SW,230,3.0,3.0,70,0.00,,,0.00,Wunderground v.1.15,2013-04-08 14:10:00,
2013-04-08 10:20:00,63.2,52.1,30.14,West,271,4.0,4.0,67,0.00,,,0.00,Wunderground v.1.15,2013-04-08 14:20:00,
2013-04-08 10:25:00,63.5,52.3,30.15,West,262,4.0,7.0,67,0.00,,,0.00,Wunderground v.1.15,2013-04-08 14:25:00,
2013-04-08 10:30:00,63.8,52.6,30.15,SSW,209,4.0,4.0,67,0.00,,,0.00,Wunderground v.1.15,2013-04-08 14:30:00,
2013-04-08 10:35:00,64.3,52.7,30.14,WSW,254,3.0,4.0,66,0.00,,,0.00,Wunderground v.1.15,2013-04-08 14:35:00,
2013-04-08 10:40:00,64.9,52.4,30.15,SW,224,2.0,2.0,64,0.00,,,0.00,Wunderground v.1.15,2013-04-08 14:40:00,
2013-04-08 10:45:00,65.4,52.5,30.14,SW,236,2.0,2.0,63,0.00,,,0.00,Wunderground v.1.15,2013-04-08 14:45:00,
2013-04-08 10:55:00,65.9,52.5,30.15,WSW,244,4.0,6.0,62,0.00,,,0.00,Wunderground v.1.15,2013-04-08 14:55:00,
2013-04-08 11:00:00,66.3,53.3,30.14,WSW,247,4.0,6.0,63,0.00,,,0.00,Wunderground v.1.15,2013-04-08 15:00:00,
2013-04-08 11:05:00,66.4,53.0,30.14,South,178,4.0,6.0,62,0.00,,,0.00,Wunderground v.1.15,2013-04-08 15:05:00,
2013-04-08 11:10:00,66.9,53.5,30.14,SSW,198,4.0,6.0,62,0.00,,,0.00,Wunderground v.1.15,2013-04-08 15:10:00,
2013-04-08 11:20:00,67.4,53.5,30.15,South,180,4.0,4.0,61,0.00,,,0.00,Wunderground v.1.15,2013-04-08 15:20:00,
2013-04-08 11:25:00,67.8,52.5,30.14,SW,232,4.0,4.0,58,0.00,,,0.00,Wunderground v.1.15,2013-04-08 15:25:00,
2013-04-08 11:30:00,68.3,52.9,30.14,WSW,246,4.0,5.0,58,0.00,,,0.00,Wunderground v.1.15,2013-04-08 15:30:00,
2013-04-08 11:35:00,68.6,52.3,30.14,West,261,4.0,5.0,56,0.00,,,0.00,Wunderground v.1.15,2013-04-08 15:35:00,
2013-04-08 11:40:00,68.8,52.9,30.14,SSW,205,4.0,4.0,57,0.00,,,0.00,Wunderground v.1.15,2013-04-08 15:40:00,
2013-04-08 11:45:00,68.8,52.0,30.14,SSW,213,4.0,5.0,55,0.00,,,0.00,Wunderground v.1.15,2013-04-08 15:45:00,
2013-04-08 11:50:00,68.6,52.3,30.14,SSW,206,5.0,5.0,56,0.00,,,0.00,Wunderground v.1.15,2013-04-08 15:50:00,
2013-04-08 11:55:00,69.3,51.9,30.14,SW,217,5.0,5.0,54,0.00,,,0.00,Wunderground v.1.15,2013-04-08 15:55:00,
2013-04-08 12:00:00,69.8,51.9,30.14,SSE,163,4.0,4.0,53,0.00,,,0.00,Wunderground v.1.15,2013-04-08 16:00:00,
2013-04-08 12:05:00,70.3,51.8,30.14,SW,225,4.0,4.0,52,0.00,,,0.00,Wunderground v.1.15,2013-04-08 16:05:00,
2013-04-08 12:10:00,70.8,52.3,30.14,SW,224,4.0,5.0,52,0.00,,,0.00,Wunderground v.1.15,2013-04-08 16:10:00,
2013-04-08 12:15:00,71.3,52.8,30.14,SW,230,4.0,6.0,52,0.00,,,0.00,Wunderground v.1.15,2013-04-08 16:15:00,
2013-04-08 12:20:00,71.5,52.4,30.14,SSW,201,5.0,6.0,51,0.00,,,0.00,Wunderground v.1.15,2013-04-08 16:20:00,
2013-04-08 12:25:00,71.3,52.2,30.13,SSE,159,5.0,6.0,51,0.00,,,0.00,Wunderground v.1.15,2013-04-08 16:25:00,
2013-04-08 12:30:00,71.3,52.2,30.13,SW,234,5.0,5.0,51,0.00,,,0.00,Wunderground v.1.15,2013-04-08 16:30:00,
2013-04-08 12:40:00,72.4,51.6,30.12,SSE,155,4.0,4.0,48,0.00,,,0.00,Wunderground v.1.15,2013-04-08 16:40:00,
2013-04-08 12:45:00,72.9,52.6,30.12,WNW,289,3.0,5.0,49,0.00,,,0.00,Wunderground v.1.15,2013-04-08 16:45:00,
2013-04-08 12:50:00,72.9,51.5,30.12,SSW,198,4.0,7.0,47,0.00,,,0.00,Wunderground v.1.15,2013-04-08 16:50:00,
2013-04-08 13:00:00,73.1,51.1,30.11,WSW,241,4.0,4.0,46,0.00,,,0.00,Wunderground v.1.15,2013-04-08 17:00:00,
2013-04-08 13:05:00,73.1,51.7,30.11,SSW,192,4.0,4.0,47,0.00,,,0.00,Wunderground v.1.15,2013-04-08 17:05:00,
2013-04-08 13:10:00,72.9,50.3,30.10,SSW,213,4.0,5.0,45,0.00,,,0.00,Wunderground v.1.15,2013-04-08 17:10:00,
2013-04-08 13:15:00,73.6,51.5,30.10,SSE,164,4.0,5.0,46,0.00,,,0.00,Wunderground v.1.15,2013-04-08 17:15:00,
2013-04-08 13:25:00,73.4,51.4,30.10,SSW,209,5.0,5.0,46,0.00,,,0.00,Wunderground v.1.15,2013-04-08 17:25:00,
2013-04-08 13:30:00,73.6,51.5,30.10,WSW,257,4.0,9.0,46,0.00,,,0.00,Wunderground v.1.15,2013-04-08 17:30:00,
2013-04-08 13:35:00,74.5,51.8,30.10,SSE,159,2.0,9.0,45,0.00,,,0.00,Wunderground v.1.15,2013-04-08 17:35:00,
2013-04-08 13:40:00,74.1,51.4,30.09,SW,217,4.0,4.0,45,0.00,,,0.00,Wunderground v.1.15,2013-04-08 17:40:00,
2013-04-08 13:45:00,74.3,51.6,30.09,SW,214,4.0,4.0,45,0.00,,,0.00,Wunderground v.1.15,2013-04-08 17:45:00,
2013-04-08 13:50:00,75.0,50.3,30.09,West,261,3.0,5.0,42,0.00,,,0.00,Wunderground v.1.15,2013-04-08 17:50:00,
2013-04-08 13:55:00,75.0,51.0,30.09,WSW,250,4.0,5.0,43,0.00,,,0.00,Wunderground v.1.15,2013-04-08 17:55:00,
2013-04-08 14:05:00,74.8,50.8,30.09,SSW,197,4.0,4.0,43,0.00,,,0.00,Wunderground v.1.15,2013-04-08 18:05:00,
2013-04-08 14:10:00,74.3,51.6,30.08,WSW,244,4.0,4.0,45,0.00,,,0.00,Wunderground v.1.15,2013-04-08 18:10:00,
2013-04-08 14:15:00,74.8,51.4,30.08,SSW,209,3.0,7.0,44,0.00,,,0.00,Wunderground v.1.15,2013-04-08 18:15:00,
2013-04-08 14:20:00,73.8,49.9,30.08,SSW,211,3.0,5.0,43,0.00,,,0.00,Wunderground v.1.15,2013-04-08 18:20:00,
2013-04-08 14:25:00,73.4,50.2,30.08,SSW,194,5.0,5.0,44,0.00,,,0.00,Wunderground v.1.15,2013-04-08 18:25:00,
2013-04-08 14:30:00,73.1,49.9,30.08,SSW,193,4.0,6.0,44,0.00,,,0.00,Wunderground v.1.15,2013-04-08 18:30:00,
2013-04-08 14:35:00,73.1,50.5,30.08,WSW,252,3.0,6.0,45,0.00,,,0.00,Wunderground v.1.15,2013-04-08 18:35:00,
2013-04-08 14:40:00,73.1,49.3,30.08,WSW,238,3.0,3.0,43,0.00,,,0.00,Wunderground v.1.15,2013-04-08 18:40:00,
2013-04-08 14:45:00,73.2,50.6,30.08,SSW,208,2.0,3.0,45,0.00,,,0.00,Wunderground v.1.15,2013-04-08 18:45:00,
2013-04-08 14:50:00,73.6,49.7,30.08,WSW,250,2.0,2.0,43,0.00,,,0.00,Wunderground v.1.15,2013-04-08 18:50:00,
2013-04-08 14:55:00,73.6,50.3,30.07,WSW,258,3.0,3.0,44,0.00,,,0.00,Wunderground v.1.15,2013-04-08 18:55:00,
2013-04-08 15:00:00,74.1,49.5,30.07,SSW,192,3.0,5.0,42,0.00,,,0.00,Wunderground v.1.15,2013-04-08 19:00:00,
2013-04-08 15:10:00,75.3,48.6,30.07,West,275,4.0,4.0,39,0.00,,,0.00,Wunderground v.1.15,2013-04-08 19:10:00,
2013-04-08 15:15:00,75.7,49.0,30.06,West,265,4.0,4.0,39,0.00,,,0.00,Wunderground v.1.15,2013-04-08 19:15:00,
2013-04-08 15:20:00,76.1,49.3,30.06,SW,218,4.0,4.0,39,0.00,,,0.00,Wunderground v.1.15,2013-04-08 19:20:00,
2013-04-08 15:30:00,76.1,48.6,30.06,SW,232,4.0,4.0,38,0.00,,,0.00,Wunderground v.1.15,2013-04-08 19:30:00,
2013-04-08 15:35:00,75.3,49.3,30.05,SSW,209,4.0,4.0,40,0.00,,,0.00,Wunderground v.1.15,2013-04-08 19:35:00,
2013-04-08 15:40:00,75.2,47.8,30.05,South,186,3.0,3.0,38,0.00,,,0.00,Wunderground v.1.15,2013-04-08 19:40:00,
2013-04-08 15:50:00,75.7,49.0,30.05,SSW,198,3.0,6.0,39,0.00,,,0.00,Wunderground v.1.15,2013-04-08 19:50:00,
2013-04-08 15:55:00,75.9,49.8,30.05,SSE,150,4.0,6.0,40,0.00,,,0.00,Wunderground v.1.15,2013-04-08 19:55:00,
2013-04-08 16:00:00,75.3,47.9,30.05,South,180,4.0,5.0,38,0.00,,,0.00,Wunderground v.1.15,2013-04-08 20:00:00,
2013-04-08 16:05:00,74.6,48.7,30.04,SW,221,5.0,5.0,40,0.00,,,0.00,Wunderground v.1.15,2013-04-08 20:05:00,
2013-04-08 16:10:00,75.0,49.0,30.04,SSW,202,4.0,5.0,40,0.00,,,0.00,Wunderground v.1.15,2013-04-08 20:10:00,
2013-04-08 16:15:00,75.0,48.4,30.04,South,169,4.0,6.0,39,0.00,,,0.00,Wunderground v.1.15,2013-04-08 20:15:00,
2013-04-08 16:20:00,74.8,48.9,30.04,SSW,207,5.0,5.0,40,0.00,,,0.00,Wunderground v.1.15,2013-04-08 20:20:00,
2013-04-08 16:25:00,74.8,48.9,30.04,SSW,209,4.0,5.0,40,0.00,,,0.00,Wunderground v.1.15,2013-04-08 20:25:00,
2013-04-08 16:30:00,74.6,49.3,30.04,SE,134,4.0,5.0,41,0.00,,,0.00,Wunderground v.1.15,2013-04-08 20:30:00,
2013-04-08 16:40:00,74.3,48.4,30.04,South,190,5.0,5.0,40,0.00,,,0.00,Wunderground v.1.15,2013-04-08 20:40:00,
2013-04-08 16:45:00,74.6,48.0,30.04,SSW,213,5.0,6.0,39,0.00,,,0.00,Wunderground v.1.15,2013-04-08 20:45:00,
2013-04-08 16:50:00,74.8,48.2,30.03,SSW,208,5.0,5.0,39,0.00,,,0.00,Wunderground v.1.15,2013-04-08 20:50:00,
2013-04-08 16:55:00,75.2,48.5,30.03,SSW,205,5.0,5.0,39,0.00,,,0.00,Wunderground v.1.15,2013-04-08 20:55:00,
2013-04-08 17:05:00,75.7,49.0,30.03,SSW,202,5.0,5.0,39,0.00,,,0.00,Wunderground v.1.15,2013-04-08 21:05:00,
2013-04-08 17:10:00,75.7,48.3,30.03,SW,227,5.0,8.0,38,0.00,,,0.00,Wunderground v.1.15,2013-04-08 21:10:00,
2013-04-08 17:15:00,75.5,48.1,30.03,SW,236,5.0,8.0,38,0.00,,,0.00,Wunderground v.1.15,2013-04-08 21:15:00,
2013-04-08 17:20:00,75.2,49.2,30.03,WSW,240,4.0,4.0,40,0.00,,,0.00,Wunderground v.1.15,2013-04-08 21:20:00,
2013-04-08 17:25:00,74.6,48.0,30.03,SW,217,3.0,4.0,39,0.00,,,0.00,Wunderground v.1.15,2013-04-08 21:25:00,
2013-04-08 17:30:00,74.6,48.7,30.03,SSW,200,4.0,6.0,40,0.00,,,0.00,Wunderground v.1.15,2013-04-08 21:30:00,
2013-04-08 17:40:00,75.2,48.5,30.03,SW,229,5.0,5.0,39,0.00,,,0.00,Wunderground v.1.15,2013-04-08 21:40:00,
2013-04-08 17:45:00,74.8,48.9,30.03,South,186,4.0,8.0,40,0.00,,,0.00,Wunderground v.1.15,2013-04-08 21:45:00,
2013-04-08 17:50:00,74.8,48.9,30.03,SW,219,3.0,5.0,40,0.00,,,0.00,Wunderground v.1.15,2013-04-08 21:50:00,
2013-04-08 17:55:00,75.0,47.0,30.03,SW,217,4.0,5.0,37,0.00,,,0.00,Wunderground v.1.15,2013-04-08 21:55:00,
2013-04-08 18:00:00,74.8,47.5,30.04,SW,229,4.0,4.0,38,0.00,,,0.00,Wunderground v.1.15,2013-04-08 22:00:00,
2013-04-08 18:10:00,75.0,49.0,30.04,South,169,4.0,4.0,40,0.00,,,0.00,Wunderground v.1.15,2013-04-08 22:10:00,
2013-04-08 18:15:00,74.6,49.3,30.03,SW,217,4.0,7.0,41,0.00,,,0.00,Wunderground v.1.15,2013-04-08 22:15:00,
2013-04-08 18:20:00,74.6,49.3,30.03,South,182,5.0,5.0,41,0.00,,,0.00,Wunderground v.1.15,2013-04-08 22:20:00,
2013-04-08 18:25:00,74.5,48.6,30.03,South,173,4.0,5.0,40,0.00,,,0.00,Wunderground v.1.15,2013-04-08 22:25:00,
2013-04-08 18:30:00,74.3,48.4,30.03,SSW,198,3.0,5.0,40,0.00,,,0.00,Wunderground v.1.15,2013-04-08 22:30:00,
2013-04-08 18:35:00,73.9,47.4,30.03,South,188,3.0,5.0,39,0.00,,,0.00,Wunderground v.1.15,2013-04-08 22:35:00,
2013-04-08 18:40:00,73.9,48.1,30.03,South,186,4.0,4.0,40,0.00,,,0.00,Wunderground v.1.15,2013-04-08 22:40:00,
2013-04-08 18:45:00,73.8,48.6,30.04,SSW,208,3.0,4.0,41,0.00,,,0.00,Wunderground v.1.15,2013-04-08 22:45:00,
2013-04-08 18:50:00,73.8,49.3,30.03,SW,221,2.0,2.0,42,0.00,,,0.00,Wunderground v.1.15,2013-04-08 22:50:00,
2013-04-08 18:55:00,73.4,48.3,30.04,SSW,200,2.0,4.0,41,0.00,,,0.00,Wunderground v.1.15,2013-04-08 22:55:00,
2013-04-08 19:00:00,73.1,48.0,30.04,South,183,3.0,6.0,41,0.00,,,0.00,Wunderground v.1.15,2013-04-08 23:00:00,
2013-04-08 19:10:00,72.7,48.3,30.04,South,190,3.0,3.0,42,0.00,,,0.00,Wunderground v.1.15,2013-04-08 23:10:00,
2013-04-08 19:20:00,72.2,47.2,30.04,SSW,200,5.0,5.0,41,0.00,,,0.00,Wunderground v.1.15,2013-04-08 23:20:00,
2013-04-08 19:25:00,72.0,48.3,30.04,SSW,194,5.0,5.0,43,0.00,,,0.00,Wunderground v.1.15,2013-04-08 23:25:00,
2013-04-08 19:30:00,71.7,48.6,30.04,SW,229,3.0,3.0,44,0.00,,,0.00,Wunderground v.1.15,2013-04-08 23:30:00,
2013-04-08 19:35:00,71.5,48.4,30.04,SSW,213,3.0,3.0,44,0.00,,,0.00,Wunderground v.1.15,2013-04-08 23:35:00,
2013-04-08 19:40:00,71.2,48.8,30.05,SSW,205,2.0,2.0,45,0.00,,,0.00,Wunderground v.1.15,2013-04-08 23:40:00,
2013-04-08 19:45:00,70.8,48.4,30.05,SSW,205,1.0,2.0,45,0.00,,,0.00,Wunderground v.1.15,2013-04-08 23:45:00,
2013-04-08 19:50:00,70.5,48.7,30.05,SSW,202,1.0,4.0,46,0.00,,,0.00,Wunderground v.1.15,2013-04-08 23:50:00,
2013-04-08 19:55:00,70.3,48.5,30.05,SSW,204,2.0,5.0,46,0.00,,,0.00,Wunderground v.1.15,2013-04-08 23:55:00,
2013-04-08 20:00:00,70.1,48.4,30.05,SSW,203,3.0,3.0,46,0.00,,,0.00,Wunderground v.1.15,2013-04-09 00:00:00,
2013-04-08 20:10:00,69.8,49.2,30.05,SSW,198,2.0,2.0,48,0.00,,,0.00,Wunderground v.1.15,2013-04-09 00:10:00,
2013-04-08 20:15:00,69.4,48.9,30.05,SSW,198,1.0,2.0,48,0.00,,,0.00,Wunderground v.1.15,2013-04-09 00:15:00,
2013-04-08 20:20:00,69.3,48.8,30.05,SSW,198,2.0,2.0,48,0.00,,,0.00,Wunderground v.1.15,2013-04-09 00:20:00,
2013-04-08 20:25:00,68.9,48.9,30.05,SSW,198,2.0,2.0,49,0.00,,,0.00,Wunderground v.1.15,2013-04-09 00:25:00,
2013-04-08 20:35:00,68.6,48.7,30.06,SSW,198,1.0,2.0,49,0.00,,,0.00,Wunderground v.1.15,2013-04-09 00:35:00,
2013-04-08 20:40:00,68.6,49.2,30.06,SSW,198,1.0,1.0,50,0.00,,,0.00,Wunderground v.1.15,2013-04-09 00:40:00,
2013-04-08 20:45:00,68.3,48.9,30.06,SSW,198,1.0,2.0,50,0.00,,,0.00,Wunderground v.1.15,2013-04-09 00:45:00,
2013-04-08 20:50:00,68.1,48.8,30.06,SSW,198,1.0,1.0,50,0.00,,,0.00,Wunderground v.1.15,2013-04-09 00:50:00,
2013-04-08 20:55:00,67.8,49.0,30.06,SSW,198,2.0,2.0,51,0.00,,,0.00,Wunderground v.1.15,2013-04-09 00:55:00,
2013-04-08 21:00:00,67.6,48.8,30.06,SSW,198,2.0,2.0,51,0.00,,,0.00,Wunderground v.1.15,2013-04-09 01:00:00,
2013-04-08 21:05:00,67.4,48.6,30.06,SSW,198,1.0,2.0,51,0.00,,,0.00,Wunderground v.1.15,2013-04-09 01:05:00,
2013-04-08 21:10:00,67.4,48.6,30.06,SSW,198,1.0,1.0,51,0.00,,,0.00,Wunderground v.1.15,2013-04-09 01:10:00,
2013-04-08 21:15:00,67.3,49.1,30.06,SSW,198,0.0,2.0,52,0.00,,,0.00,Wunderground v.1.15,2013-04-09 01:15:00,
2013-04-08 21:20:00,67.1,48.9,30.07,SSW,198,0.0,1.0,52,0.00,,,0.00,Wunderground v.1.15,2013-04-09 01:20:00,
2013-04-08 21:25:00,66.9,49.2,30.07,SSW,198,1.0,1.0,53,0.00,,,0.00,Wunderground v.1.15,2013-04-09 01:25:00,
2013-04-08 21:30:00,66.8,49.1,30.07,SSW,198,0.0,0.0,53,0.00,,,0.00,Wunderground v.1.15,2013-04-09 01:30:00,
2013-04-08 21:35:00,66.6,48.9,30.07,SSW,198,0.0,0.0,53,0.00,,,0.00,Wunderground v.1.15,2013-04-09 01:35:00,
2013-04-08 21:40:00,66.4,48.7,30.07,SSW,198,0.0,0.0,53,0.00,,,0.00,Wunderground v.1.15,2013-04-09 01:40:00,
2013-04-08 21:45:00,66.4,48.7,30.07,SSW,198,0.0,0.0,53,0.00,,,0.00,Wunderground v.1.15,2013-04-09 01:45:00,
2013-04-08 21:50:00,66.3,49.2,30.08,SSW,198,0.0,0.0,54,0.00,,,0.00,Wunderground v.1.15,2013-04-09 01:50:00,
2013-04-08 21:55:00,66.1,49.0,30.08,SSW,198,0.0,0.0,54,0.00,,,0.00,Wunderground v.1.15,2013-04-09 01:55:00,
2013-04-08 22:00:00,65.8,48.7,30.08,SSW,198,0.0,0.0,54,0.00,,,0.00,Wunderground v.1.15,2013-04-09 02:00:00,
2013-04-08 22:10:00,65.3,48.7,30.08,SSW,198,0.0,0.0,55,0.00,,,0.00,Wunderground v.1.15,2013-04-09 02:10:00,
2013-04-08 22:15:00,64.9,48.8,30.08,SSW,198,0.0,0.0,56,0.00,,,0.00,Wunderground v.1.15,2013-04-09 02:15:00,
2013-04-08 22:20:00,64.6,48.1,30.08,SSW,198,0.0,0.0,55,0.00,,,0.00,Wunderground v.1.15,2013-04-09 02:20:00,
2013-04-08 22:25:00,64.5,48.4,30.08,SSW,198,0.0,0.0,56,0.00,,,0.00,Wunderground v.1.15,2013-04-09 02:25:00,
2013-04-08 22:30:00,64.1,48.5,30.07,SSW,198,0.0,0.0,57,0.00,,,0.00,Wunderground v.1.15,2013-04-09 02:30:00,
2013-04-08 22:35:00,64.0,48.9,30.07,SSW,198,0.0,0.0,58,0.00,,,0.00,Wunderground v.1.15,2013-04-09 02:35:00,
2013-04-08 22:40:00,63.8,48.7,30.07,SSW,198,0.0,0.0,58,0.00,,,0.00,Wunderground v.1.15,2013-04-09 02:40:00,
2013-04-08 22:45:00,63.7,48.2,30.07,SSW,198,0.0,0.0,57,0.00,,,0.00,Wunderground v.1.15,2013-04-09 02:45:00,
2013-04-08 22:50:00,63.7,48.2,30.07,SSW,198,0.0,0.0,57,0.00,,,0.00,Wunderground v.1.15,2013-04-09 02:50:00,
2013-04-08 22:55:00,63.7,48.2,30.07,SSW,198,0.0,1.0,57,0.00,,,0.00,Wunderground v.1.15,2013-04-09 02:55:00,
2013-04-08 23:00:00,63.7,48.6,30.07,SSW,198,0.0,0.0,58,0.00,,,0.00,Wunderground v.1.15,2013-04-09 03:00:00,
2013-04-08 23:05:00,63.5,48.5,30.07,SSW,198,0.0,0.0,58,0.00,,,0.00,Wunderground v.1.15,2013-04-09 03:05:00,
2013-04-08 23:10:00,63.5,48.9,30.07,SSW,198,0.0,1.0,59,0.00,,,0.00,Wunderground v.1.15,2013-04-09 03:10:00,
2013-04-08 23:15:00,63.3,48.7,30.06,SSW,198,0.0,1.0,59,0.00,,,0.00,Wunderground v.1.15,2013-04-09 03:15:00,
2013-04-08 23:20:00,63.3,48.7,30.06,SSW,198,0.0,0.0,59,0.00,,,0.00,Wunderground v.1.15,2013-04-09 03:20:00,
2013-04-08 23:30:00,63.2,49.1,30.06,SSW,198,0.0,0.0,60,0.00,,,0.00,Wunderground v.1.15,2013-04-09 03:30:00,
2013-04-08 23:35:00,63.2,49.1,30.06,SSW,198,0.0,0.0,60,0.00,,,0.00,Wunderground v.1.15,2013-04-09 03:35:00,
2013-04-08 23:40:00,63.0,49.3,30.06,SSW,198,0.0,0.0,61,0.00,,,0.00,Wunderground v.1.15,2013-04-09 03:40:00,
2013-04-08 23:45:00,62.8,49.1,30.06,SSW,198,0.0,0.0,61,0.00,,,0.00,Wunderground v.1.15,2013-04-09 03:45:00,
2013-04-08 23:50:00,62.7,49.5,30.06,SSW,198,0.0,0.0,62,0.00,,,0.00,Wunderground v.1.15,2013-04-09 03:50:00,
2013-04-08 23:55:00,62.5,49.3,30.06,SSW,198,0.0,0.0,62,0.00,,,0.00,Wunderground v.1.15,2013-04-09 03:55:00,